Garber, IA

12:16 PM CDT on July 25, 2014 (GMT -0500)
KIASTRAW2 Elev 1220 ft | 42.68 °N, 91.53 °W | Change Station

Current weather conditions updated 3 minutes ago

Overcast
Overcast
66.8 °F
Feels Like 66.8 °F
N
11.0
Wind Variable Wind from SSW
Gusts 14.0 mph

Today is forecast to be nearly the same temperature as yesterday.

Today
High -- | Low -- °F
--% Chance of Precip.
Yesterday
High -- | Low -- °F
Precip. -- in
5:49 AM 8:32 PM
Waning Crescent, 1% visible
Pressure 29.91 in
Visibility 10.0 miles
Clouds Overcast 1400 ft
Dew Point 63 °F
Humidity 87%
Rainfall -999.00 in
Snow Depth Not available.
UV 3 out of 12
Pollen 6.00 out of 12
Air Quality Not available.
Flu Activity Not available.
METAR KPDC 251655Z AUTO 21004KT 10SM OVC014 19/15 A2991 RMK AO2 T01850148

More Conditions Fewer Conditions

Pressure 29.91 in
Visibility 10.0 miles
Clouds Overcast 1400 ft
Dew Point 63 °F
Humidity 87%
Rainfall -999.00 in
Snow Depth Not available.
UV 3 out of 12
Pollen 6.00 out of 12
Air Quality Not available.
Flu Activity Not available.
METAR KPDC 251655Z AUTO 21004KT 10SM OVC014 19/15 A2991 RMK AO2 T01850148

More Conditions Fewer Conditions

10-Day Weather Forecast

Almanac

Astronomy

Jul. 25, 2014 Rise Set
Actual Time 5:49 AM CDT 8:32 PM CDT
Civil Twilight 5:16 AM CDT 9:05 PM CDT
Nautical Twilight 4:35 AM CDT 9:46 PM CDT
Astronomical Twilight 3:47 AM CDT 10:33 PM CDT
Moon 4:50 AM CDT 7:28 PM CDT
Length of Visible Light 15h 49m
Length of Day
14h 43m
Tomorrow will be 1m 59s shorter.
Waning Crescent, 1% of the Moon is Illuminated
Today
Waning Crescent
Jul 26
New
Aug 3
First Quarter
Aug 10
Full
Aug 17
Last Quarter

Today's Extremes

State Highs State Lows

Community

WunderPhotos

Upload Photos

1,737,366 photos uploaded!

Nearby

Snow Depth

Station Depth Elevation
No new snow has been reported.

Earthquake Activity

City Distance Mag. Time & Date
No recent earthquake activity has been reported nearby.
Minimum magnitude displayed is 2.5.

Coastal Water Temperatures

Place Temperature
No Stations Reporting

Nearby Weather Stations

Station Location Temp. Dew Point Humidity Wind Precip. Elev Updated Type
Strawberry Point, IA 66.8 °F 63 °F 87% SSW  at  11.0 mph 0.00 in / hr 1220 ft 12:13 PM CDT Normal
Prairie du Chien, Prairie Du Chien, WI 68.4 °F 64 °F 87% North  at  0.0 mph 0.00 in / hr 681 ft 12:16 PM CDT Rapid Fire
Monona, IA 65.5 °F 62 °F 89% SW  at  2.0 mph 0.00 in / hr 1214 ft 12:13 PM CDT Normal

Show More Stations Show Fewer Stations